Parc Villa Delicias, Puerto Rico
Current Conditions -  °F | °C
As of 11:56 PM on Sunday 21 Dec 2014 (Local Time) from TJSJ Reporting Station
Scattered Clouds Scattered Clouds  
Wind Chill: 76°   Ceiling: Unl
Heat Index: 76°   Visibility: 10mi
Dew Point: 68°   Wind: 0mph
Humidity: 76%   Direction: NA
Pressure: 30.07"   Gusts: NA
Location:  18.3747°N, 65.9126°W
Report Text: TJSJ 220356Z 00000KT 10SM FEW037 SCT046 24/20 A3007 RMK AO2 SLP182 T02440200 402890233
Loading
Personal Weather Stations






























Interactive Weather Map New forecast layout! Learn more

10-Day Weather Forecast

Advertisements
Track Severe Weather on mobile